sensor_id;sensor_type;location;lat;lon;timestamp;P1;durP1;ratioP1;P2;durP2;ratioP2
77146;SDS011;66121;52.584;9.694;2023-07-08T00:00:09;8.55;;;4.53;;
77146;SDS011;66121;52.584;9.694;2023-07-08T00:02:40;9.73;;;5.22;;
77146;SDS011;66121;52.584;9.694;2023-07-08T00:05:07;6.50;;;4.45;;
77146;SDS011;66121;52.584;9.694;2023-07-08T00:07:33;8.30;;;4.55;;
77146;SDS011;66121;52.584;9.694;2023-07-08T00:09:58;7.40;;;5.53;;
77146;SDS011;66121;52.584;9.694;2023-07-08T00:12:24;8.63;;;5.00;;
77146;SDS011;66121;52.584;9.694;2023-07-08T00:14:49;6.90;;;4.60;;
77146;SDS011;66121;52.584;9.694;2023-07-08T00:17:14;7.80;;;5.37;;
77146;SDS011;66121;52.584;9.694;2023-07-08T00:19:40;10.00;;;4.53;;
77146;SDS011;66121;52.584;9.694;2023-07-08T00:22:10;7.38;;;4.82;;
77146;SDS011;66121;52.584;9.694;2023-07-08T00:24:38;5.93;;;5.00;;
77146;SDS011;66121;52.584;9.694;2023-07-08T00:27:04;7.47;;;4.97;;
77146;SDS011;66121;52.584;9.694;2023-07-08T00:29:29;6.63;;;4.65;;
77146;SDS011;66121;52.584;9.694;2023-07-08T00:31:55;7.20;;;5.03;;
77146;SDS011;66121;52.584;9.694;2023-07-08T00:34:20;6.37;;;5.13;;
77146;SDS011;66121;52.584;9.694;2023-07-08T00:36:45;8.85;;;5.70;;
77146;SDS011;66121;52.584;9.694;2023-07-08T00:39:13;6.38;;;5.15;;
77146;SDS011;66121;52.584;9.694;2023-07-08T00:41:42;6.22;;;5.00;;
77146;SDS011;66121;52.584;9.694;2023-07-08T00:44:10;12.73;;;5.50;;
77146;SDS011;66121;52.584;9.694;2023-07-08T00:46:40;6.00;;;4.90;;
77146;SDS011;66121;52.584;9.694;2023-07-08T00:51:49;7.07;;;4.90;;
77146;SDS011;66121;52.584;9.694;2023-07-08T00:54:15;7.47;;;5.13;;
77146;SDS011;66121;52.584;9.694;2023-07-08T00:56:44;6.40;;;5.13;;
77146;SDS011;66121;52.584;9.694;2023-07-08T00:59:19;8.30;;;5.28;;
77146;SDS011;66121;52.584;9.694;2023-07-08T01:01:49;7.07;;;4.80;;
77146;SDS011;66121;52.584;9.694;2023-07-08T01:04:18;7.15;;;4.68;;
77146;SDS011;66121;52.584;9.694;2023-07-08T01:06:48;7.70;;;4.80;;
77146;SDS011;66121;52.584;9.694;2023-07-08T01:09:22;6.75;;;5.43;;
77146;SDS011;66121;52.584;9.694;2023-07-08T01:11:51;6.47;;;5.15;;
77146;SDS011;66121;52.584;9.694;2023-07-08T01:14:17;9.77;;;5.40;;
77146;SDS011;66121;52.584;9.694;2023-07-08T01:16:45;8.48;;;5.13;;
77146;SDS011;66121;52.584;9.694;2023-07-08T01:19:12;6.57;;;4.72;;
77146;SDS011;66121;52.584;9.694;2023-07-08T01:21:46;6.72;;;5.63;;
77146;SDS011;66121;52.584;9.694;2023-07-08T01:24:25;6.15;;;4.68;;
77146;SDS011;66121;52.584;9.694;2023-07-08T01:26:52;9.20;;;5.50;;
77146;SDS011;66121;52.584;9.694;2023-07-08T01:29:18;7.15;;;4.85;;
77146;SDS011;66121;52.584;9.694;2023-07-08T01:31:44;11.20;;;5.50;;
77146;SDS011;66121;52.584;9.694;2023-07-08T01:34:14;12.98;;;5.22;;
77146;SDS011;66121;52.584;9.694;2023-07-08T01:36:41;11.05;;;5.97;;
77146;SDS011;66121;52.584;9.694;2023-07-08T01:39:15;7.45;;;4.65;;
77146;SDS011;66121;52.584;9.694;2023-07-08T01:41:43;7.10;;;5.30;;
77146;SDS011;66121;52.584;9.694;2023-07-08T01:44:23;7.50;;;5.20;;
77146;SDS011;66121;52.584;9.694;2023-07-08T01:46:54;10.98;;;5.60;;
77146;SDS011;66121;52.584;9.694;2023-07-08T01:49:33;7.68;;;5.07;;
77146;SDS011;66121;52.584;9.694;2023-07-08T01:52:02;7.00;;;5.05;;
77146;SDS011;66121;52.584;9.694;2023-07-08T01:54:27;7.75;;;5.60;;
77146;SDS011;66121;52.584;9.694;2023-07-08T01:56:57;6.17;;;5.20;;
77146;SDS011;66121;52.584;9.694;2023-07-08T01:59:22;6.82;;;5.57;;
77146;SDS011;66121;52.584;9.694;2023-07-08T02:01:48;7.25;;;5.57;;
77146;SDS011;66121;52.584;9.694;2023-07-08T02:04:15;11.85;;;5.80;;
77146;SDS011;66121;52.584;9.694;2023-07-08T02:06:40;6.70;;;5.45;;
77146;SDS011;66121;52.584;9.694;2023-07-08T02:09:07;9.73;;;5.47;;
77146;SDS011;66121;52.584;9.694;2023-07-08T02:11:32;6.55;;;5.25;;
77146;SDS011;66121;52.584;9.694;2023-07-08T02:13:58;7.70;;;5.63;;
77146;SDS011;66121;52.584;9.694;2023-07-08T02:16:25;7.45;;;5.70;;
77146;SDS011;66121;52.584;9.694;2023-07-08T02:18:50;7.82;;;5.80;;
77146;SDS011;66121;52.584;9.694;2023-07-08T02:21:15;6.57;;;5.63;;
77146;SDS011;66121;52.584;9.694;2023-07-08T02:23:43;6.30;;;5.03;;
77146;SDS011;66121;52.584;9.694;2023-07-08T02:26:09;7.72;;;5.70;;
77146;SDS011;66121;52.584;9.694;2023-07-08T02:28:35;7.87;;;5.30;;
77146;SDS011;66121;52.584;9.694;2023-07-08T02:31:03;7.07;;;5.90;;
77146;SDS011;66121;52.584;9.694;2023-07-08T02:33:28;6.70;;;5.68;;
77146;SDS011;66121;52.584;9.694;2023-07-08T02:35:57;8.35;;;5.80;;
77146;SDS011;66121;52.584;9.694;2023-07-08T02:38:24;14.25;;;6.22;;
77146;SDS011;66121;52.584;9.694;2023-07-08T02:40:49;8.20;;;5.63;;
77146;SDS011;66121;52.584;9.694;2023-07-08T02:43:15;8.20;;;5.53;;
77146;SDS011;66121;52.584;9.694;2023-07-08T02:45:41;7.10;;;5.60;;
77146;SDS011;66121;52.584;9.694;2023-07-08T02:48:06;7.97;;;5.10;;
77146;SDS011;66121;52.584;9.694;2023-07-08T02:50:31;9.77;;;6.10;;
77146;SDS011;66121;52.584;9.694;2023-07-08T02:52:56;8.53;;;5.80;;
77146;SDS011;66121;52.584;9.694;2023-07-08T02:55:22;13.40;;;6.13;;
77146;SDS011;66121;52.584;9.694;2023-07-08T02:57:47;7.77;;;6.10;;
77146;SDS011;66121;52.584;9.694;2023-07-08T03:00:12;10.57;;;6.57;;
77146;SDS011;66121;52.584;9.694;2023-07-08T03:02:38;7.95;;;5.47;;
77146;SDS011;66121;52.584;9.694;2023-07-08T03:05:04;7.32;;;5.70;;
77146;SDS011;66121;52.584;9.694;2023-07-08T03:07:30;10.55;;;6.72;;
77146;SDS011;66121;52.584;9.694;2023-07-08T03:09:55;8.57;;;6.00;;
77146;SDS011;66121;52.584;9.694;2023-07-08T03:12:21;9.70;;;5.97;;
77146;SDS011;66121;52.584;9.694;2023-07-08T03:14:46;7.45;;;5.57;;
77146;SDS011;66121;52.584;9.694;2023-07-08T03:17:12;8.77;;;6.05;;
77146;SDS011;66121;52.584;9.694;2023-07-08T03:19:37;10.05;;;5.63;;
77146;SDS011;66121;52.584;9.694;2023-07-08T03:22:03;8.32;;;5.88;;
77146;SDS011;66121;52.584;9.694;2023-07-08T03:24:30;9.43;;;6.45;;
77146;SDS011;66121;52.584;9.694;2023-07-08T03:26:55;6.95;;;6.13;;
77146;SDS011;66121;52.584;9.694;2023-07-08T03:29:22;10.82;;;6.28;;
77146;SDS011;66121;52.584;9.694;2023-07-08T03:31:48;7.85;;;6.63;;
77146;SDS011;66121;52.584;9.694;2023-07-08T03:34:14;7.30;;;6.20;;
77146;SDS011;66121;52.584;9.694;2023-07-08T03:36:50;7.78;;;5.97;;
77146;SDS011;66121;52.584;9.694;2023-07-08T03:39:20;9.40;;;5.97;;
77146;SDS011;66121;52.584;9.694;2023-07-08T03:41:48;9.70;;;7.00;;
77146;SDS011;66121;52.584;9.694;2023-07-08T03:44:14;9.32;;;6.15;;
77146;SDS011;66121;52.584;9.694;2023-07-08T03:46:43;8.32;;;6.25;;
77146;SDS011;66121;52.584;9.694;2023-07-08T03:49:10;6.93;;;5.63;;
77146;SDS011;66121;52.584;9.694;2023-07-08T03:51:37;7.97;;;5.40;;
77146;SDS011;66121;52.584;9.694;2023-07-08T03:54:04;15.30;;;6.82;;
77146;SDS011;66121;52.584;9.694;2023-07-08T03:56:30;11.55;;;6.32;;
77146;SDS011;66121;52.584;9.694;2023-07-08T03:58:56;8.35;;;7.13;;
77146;SDS011;66121;52.584;9.694;2023-07-08T04:01:22;11.48;;;6.70;;
77146;SDS011;66121;52.584;9.694;2023-07-08T04:03:53;8.13;;;6.22;;
77146;SDS011;66121;52.584;9.694;2023-07-08T04:06:20;6.95;;;6.03;;
77146;SDS011;66121;52.584;9.694;2023-07-08T04:08:46;10.70;;;6.50;;
77146;SDS011;66121;52.584;9.694;2023-07-08T04:11:12;10.02;;;6.90;;
77146;SDS011;66121;52.584;9.694;2023-07-08T04:13:39;9.18;;;7.13;;
77146;SDS011;66121;52.584;9.694;2023-07-08T04:16:05;8.18;;;6.38;;
77146;SDS011;66121;52.584;9.694;2023-07-08T04:18:31;9.65;;;6.18;;
77146;SDS011;66121;52.584;9.694;2023-07-08T04:20:57;10.57;;;6.90;;
77146;SDS011;66121;52.584;9.694;2023-07-08T04:23:24;9.13;;;6.38;;
77146;SDS011;66121;52.584;9.694;2023-07-08T04:25:50;8.00;;;6.07;;
77146;SDS011;66121;52.584;9.694;2023-07-08T04:28:18;9.95;;;6.88;;
77146;SDS011;66121;52.584;9.694;2023-07-08T04:30:44;8.63;;;6.78;;
77146;SDS011;66121;52.584;9.694;2023-07-08T04:33:11;8.05;;;7.15;;
77146;SDS011;66121;52.584;9.694;2023-07-08T04:35:37;9.65;;;7.03;;
77146;SDS011;66121;52.584;9.694;2023-07-08T04:38:07;8.02;;;5.90;;
77146;SDS011;66121;52.584;9.694;2023-07-08T04:40:39;9.65;;;6.55;;
77146;SDS011;66121;52.584;9.694;2023-07-08T04:43:07;10.75;;;6.35;;
77146;SDS011;66121;52.584;9.694;2023-07-08T04:45:32;7.55;;;6.18;;
77146;SDS011;66121;52.584;9.694;2023-07-08T04:47:58;7.38;;;6.50;;
77146;SDS011;66121;52.584;9.694;2023-07-08T04:50:24;8.85;;;5.90;;
77146;SDS011;66121;52.584;9.694;2023-07-08T04:52:49;10.73;;;6.30;;
77146;SDS011;66121;52.584;9.694;2023-07-08T04:55:15;8.05;;;6.55;;
77146;SDS011;66121;52.584;9.694;2023-07-08T04:57:40;8.43;;;5.85;;
77146;SDS011;66121;52.584;9.694;2023-07-08T05:00:06;8.07;;;6.80;;
77146;SDS011;66121;52.584;9.694;2023-07-08T05:02:35;8.88;;;6.10;;
77146;SDS011;66121;52.584;9.694;2023-07-08T05:05:01;7.32;;;6.28;;
77146;SDS011;66121;52.584;9.694;2023-07-08T05:07:26;7.82;;;6.22;;
77146;SDS011;66121;52.584;9.694;2023-07-08T05:09:52;8.35;;;6.38;;
77146;SDS011;66121;52.584;9.694;2023-07-08T05:12:17;7.05;;;5.35;;
77146;SDS011;66121;52.584;9.694;2023-07-08T05:14:42;8.00;;;6.00;;
77146;SDS011;66121;52.584;9.694;2023-07-08T05:17:08;9.03;;;6.23;;
77146;SDS011;66121;52.584;9.694;2023-07-08T05:19:33;7.35;;;5.75;;
77146;SDS011;66121;52.584;9.694;2023-07-08T05:21:59;8.48;;;5.53;;
77146;SDS011;66121;52.584;9.694;2023-07-08T05:24:24;9.15;;;5.72;;
77146;SDS011;66121;52.584;9.694;2023-07-08T05:26:50;7.18;;;5.15;;
77146;SDS011;66121;52.584;9.694;2023-07-08T05:29:15;9.15;;;5.93;;
77146;SDS011;66121;52.584;9.694;2023-07-08T05:31:40;8.33;;;5.47;;
77146;SDS011;66121;52.584;9.694;2023-07-08T05:34:05;8.73;;;6.00;;
77146;SDS011;66121;52.584;9.694;2023-07-08T05:36:31;9.07;;;5.60;;
77146;SDS011;66121;52.584;9.694;2023-07-08T05:38:56;7.90;;;5.47;;
77146;SDS011;66121;52.584;9.694;2023-07-08T05:41:22;10.20;;;5.45;;
77146;SDS011;66121;52.584;9.694;2023-07-08T05:43:47;7.90;;;5.75;;
77146;SDS011;66121;52.584;9.694;2023-07-08T05:46:13;9.02;;;5.38;;
77146;SDS011;66121;52.584;9.694;2023-07-08T05:48:39;8.38;;;5.10;;
77146;SDS011;66121;52.584;9.694;2023-07-08T05:51:04;7.40;;;5.20;;
77146;SDS011;66121;52.584;9.694;2023-07-08T05:53:30;8.50;;;5.10;;
77146;SDS011;66121;52.584;9.694;2023-07-08T05:55:55;8.25;;;5.70;;
77146;SDS011;66121;52.584;9.694;2023-07-08T05:58:21;9.23;;;5.60;;
77146;SDS011;66121;52.584;9.694;2023-07-08T06:00:46;7.38;;;5.32;;
77146;SDS011;66121;52.584;9.694;2023-07-08T06:03:12;9.93;;;5.18;;
77146;SDS011;66121;52.584;9.694;2023-07-08T06:05:37;7.40;;;5.53;;
77146;SDS011;66121;52.584;9.694;2023-07-08T06:08:03;8.45;;;5.25;;
77146;SDS011;66121;52.584;9.694;2023-07-08T06:10:30;8.93;;;5.60;;
77146;SDS011;66121;52.584;9.694;2023-07-08T06:12:55;6.30;;;5.07;;
77146;SDS011;66121;52.584;9.694;2023-07-08T06:15:21;6.77;;;5.17;;
77146;SDS011;66121;52.584;9.694;2023-07-08T06:17:46;8.98;;;6.28;;
77146;SDS011;66121;52.584;9.694;2023-07-08T06:20:11;7.32;;;5.80;;
77146;SDS011;66121;52.584;9.694;2023-07-08T06:22:37;10.98;;;6.22;;
77146;SDS011;66121;52.584;9.694;2023-07-08T06:25:02;8.90;;;4.70;;
77146;SDS011;66121;52.584;9.694;2023-07-08T06:27:28;6.57;;;5.03;;
77146;SDS011;66121;52.584;9.694;2023-07-08T06:29:53;6.10;;;4.73;;
77146;SDS011;66121;52.584;9.694;2023-07-08T06:32:18;6.35;;;5.25;;
77146;SDS011;66121;52.584;9.694;2023-07-08T06:34:44;8.67;;;5.40;;
77146;SDS011;66121;52.584;9.694;2023-07-08T06:37:09;10.50;;;5.43;;
77146;SDS011;66121;52.584;9.694;2023-07-08T06:39:34;5.82;;;4.60;;
77146;SDS011;66121;52.584;9.694;2023-07-08T06:42:00;9.40;;;4.68;;
77146;SDS011;66121;52.584;9.694;2023-07-08T06:44:25;7.00;;;5.78;;
77146;SDS011;66121;52.584;9.694;2023-07-08T06:46:51;6.10;;;5.28;;
77146;SDS011;66121;52.584;9.694;2023-07-08T06:49:16;5.90;;;5.03;;
77146;SDS011;66121;52.584;9.694;2023-07-08T06:51:42;7.72;;;4.88;;
77146;SDS011;66121;52.584;9.694;2023-07-08T06:54:07;10.73;;;6.03;;
77146;SDS011;66121;52.584;9.694;2023-07-08T06:56:36;6.15;;;5.05;;
77146;SDS011;66121;52.584;9.694;2023-07-08T06:59:03;6.57;;;5.05;;
77146;SDS011;66121;52.584;9.694;2023-07-08T07:01:29;6.18;;;4.47;;
77146;SDS011;66121;52.584;9.694;2023-07-08T07:03:54;7.67;;;5.50;;
77146;SDS011;66121;52.584;9.694;2023-07-08T07:06:19;8.77;;;5.27;;
77146;SDS011;66121;52.584;9.694;2023-07-08T07:08:45;7.65;;;4.53;;
77146;SDS011;66121;52.584;9.694;2023-07-08T07:11:10;7.00;;;5.10;;
77146;SDS011;66121;52.584;9.694;2023-07-08T07:13:35;6.57;;;5.20;;
77146;SDS011;66121;52.584;9.694;2023-07-08T07:16:01;5.93;;;5.10;;
77146;SDS011;66121;52.584;9.694;2023-07-08T07:18:26;6.93;;;5.00;;
77146;SDS011;66121;52.584;9.694;2023-07-08T07:20:52;8.27;;;5.23;;
77146;SDS011;66121;52.584;9.694;2023-07-08T07:23:19;7.15;;;4.72;;
77146;SDS011;66121;52.584;9.694;2023-07-08T07:25:47;6.15;;;4.97;;
77146;SDS011;66121;52.584;9.694;2023-07-08T07:28:13;8.95;;;5.28;;
77146;SDS011;66121;52.584;9.694;2023-07-08T07:30:41;9.02;;;5.40;;
77146;SDS011;66121;52.584;9.694;2023-07-08T07:33:07;11.55;;;5.20;;
77146;SDS011;66121;52.584;9.694;2023-07-08T07:35:32;5.10;;;4.40;;
77146;SDS011;66121;52.584;9.694;2023-07-08T07:37:58;7.68;;;4.95;;
77146;SDS011;66121;52.584;9.694;2023-07-08T07:40:23;6.37;;;5.00;;
77146;SDS011;66121;52.584;9.694;2023-07-08T07:42:48;8.40;;;5.83;;
77146;SDS011;66121;52.584;9.694;2023-07-08T07:45:14;6.60;;;4.60;;
77146;SDS011;66121;52.584;9.694;2023-07-08T07:47:39;6.90;;;5.47;;
77146;SDS011;66121;52.584;9.694;2023-07-08T07:50:06;7.00;;;4.65;;
77146;SDS011;66121;52.584;9.694;2023-07-08T07:52:33;6.97;;;5.35;;
77146;SDS011;66121;52.584;9.694;2023-07-08T07:55:07;9.63;;;4.80;;
77146;SDS011;66121;52.584;9.694;2023-07-08T07:57:33;7.80;;;5.10;;
77146;SDS011;66121;52.584;9.694;2023-07-08T07:59:58;9.52;;;5.00;;
77146;SDS011;66121;52.584;9.694;2023-07-08T08:02:23;9.20;;;5.10;;
77146;SDS011;66121;52.584;9.694;2023-07-08T08:04:49;5.97;;;4.95;;
77146;SDS011;66121;52.584;9.694;2023-07-08T08:07:14;6.00;;;5.23;;
77146;SDS011;66121;52.584;9.694;2023-07-08T08:09:39;6.40;;;4.97;;
77146;SDS011;66121;52.584;9.694;2023-07-08T08:12:06;6.22;;;5.28;;
77146;SDS011;66121;52.584;9.694;2023-07-08T08:14:33;6.72;;;5.00;;
77146;SDS011;66121;52.584;9.694;2023-07-08T08:16:58;6.43;;;4.50;;
77146;SDS011;66121;52.584;9.694;2023-07-08T08:19:23;5.75;;;4.78;;
77146;SDS011;66121;52.584;9.694;2023-07-08T08:21:49;9.60;;;5.60;;
77146;SDS011;66121;52.584;9.694;2023-07-08T08:24:14;8.23;;;5.43;;
77146;SDS011;66121;52.584;9.694;2023-07-08T08:26:39;6.68;;;4.93;;
77146;SDS011;66121;52.584;9.694;2023-07-08T08:29:04;7.67;;;5.60;;
77146;SDS011;66121;52.584;9.694;2023-07-08T08:31:30;8.67;;;5.27;;
77146;SDS011;66121;52.584;9.694;2023-07-08T08:33:56;11.55;;;5.93;;
77146;SDS011;66121;52.584;9.694;2023-07-08T08:36:21;6.68;;;5.15;;
77146;SDS011;66121;52.584;9.694;2023-07-08T08:38:47;7.82;;;4.85;;
77146;SDS011;66121;52.584;9.694;2023-07-08T08:41:12;6.78;;;4.93;;
77146;SDS011;66121;52.584;9.694;2023-07-08T08:43:39;8.93;;;4.65;;
77146;SDS011;66121;52.584;9.694;2023-07-08T08:51:45;6.32;;;4.97;;
77146;SDS011;66121;52.584;9.694;2023-07-08T08:54:11;5.90;;;4.85;;
77146;SDS011;66121;52.584;9.694;2023-07-08T08:56:39;9.10;;;5.28;;
77146;SDS011;66121;52.584;9.694;2023-07-08T09:02:22;8.85;;;4.82;;
77146;SDS011;66121;52.584;9.694;2023-07-08T09:05:04;5.15;;;4.65;;
77146;SDS011;66121;52.584;9.694;2023-07-08T09:13:15;6.10;;;4.93;;
77146;SDS011;66121;52.584;9.694;2023-07-08T09:15:46;7.82;;;5.22;;
77146;SDS011;66121;52.584;9.694;2023-07-08T09:18:15;5.22;;;4.63;;
77146;SDS011;66121;52.584;9.694;2023-07-08T09:20:52;5.65;;;4.57;;
77146;SDS011;66121;52.584;9.694;2023-07-08T09:23:22;7.82;;;5.00;;
77146;SDS011;66121;52.584;9.694;2023-07-08T09:28:55;8.75;;;5.03;;
77146;SDS011;66121;52.584;9.694;2023-07-08T09:31:22;7.88;;;4.65;;
77146;SDS011;66121;52.584;9.694;2023-07-08T09:34:09;6.85;;;5.18;;
77146;SDS011;66121;52.584;9.694;2023-07-08T09:36:45;8.05;;;4.90;;
77146;SDS011;66121;52.584;9.694;2023-07-08T09:39:13;8.48;;;5.07;;
77146;SDS011;66121;52.584;9.694;2023-07-08T09:41:40;5.53;;;4.78;;
77146;SDS011;66121;52.584;9.694;2023-07-08T09:44:16;5.63;;;4.80;;
77146;SDS011;66121;52.584;9.694;2023-07-08T09:46:48;6.03;;;5.28;;
77146;SDS011;66121;52.584;9.694;2023-07-08T09:49:18;5.70;;;4.53;;
77146;SDS011;66121;52.584;9.694;2023-07-08T09:51:47;6.35;;;4.47;;
77146;SDS011;66121;52.584;9.694;2023-07-08T09:54:15;5.43;;;4.40;;
77146;SDS011;66121;52.584;9.694;2023-07-08T09:56:41;5.82;;;4.45;;
77146;SDS011;66121;52.584;9.694;2023-07-08T09:59:13;7.00;;;5.18;;
77146;SDS011;66121;52.584;9.694;2023-07-08T10:01:40;8.18;;;4.80;;
77146;SDS011;66121;52.584;9.694;2023-07-08T10:04:07;7.78;;;4.88;;
77146;SDS011;66121;52.584;9.694;2023-07-08T10:06:33;7.32;;;5.35;;
77146;SDS011;66121;52.584;9.694;2023-07-08T10:09:01;5.32;;;4.32;;
77146;SDS011;66121;52.584;9.694;2023-07-08T10:11:33;11.73;;;8.30;;
77146;SDS011;66121;52.584;9.694;2023-07-08T10:14:05;9.13;;;4.80;;
77146;SDS011;66121;52.584;9.694;2023-07-08T10:16:35;7.57;;;4.35;;
77146;SDS011;66121;52.584;9.694;2023-07-08T10:19:00;7.10;;;4.82;;
77146;SDS011;66121;52.584;9.694;2023-07-08T10:24:42;6.38;;;4.53;;
77146;SDS011;66121;52.584;9.694;2023-07-08T10:27:15;6.47;;;4.50;;
77146;SDS011;66121;52.584;9.694;2023-07-08T10:32:41;5.53;;;4.18;;
77146;SDS011;66121;52.584;9.694;2023-07-08T10:40:22;5.40;;;4.28;;
77146;SDS011;66121;52.584;9.694;2023-07-08T10:45:26;5.18;;;4.18;;
77146;SDS011;66121;52.584;9.694;2023-07-08T10:48:03;6.93;;;4.20;;
77146;SDS011;66121;52.584;9.694;2023-07-08T10:53:22;6.28;;;4.60;;
77146;SDS011;66121;52.584;9.694;2023-07-08T10:56:06;5.75;;;4.55;;
77146;SDS011;66121;52.584;9.694;2023-07-08T11:04:30;6.88;;;4.40;;
77146;SDS011;66121;52.584;9.694;2023-07-08T11:10:00;5.32;;;4.10;;
77146;SDS011;66121;52.584;9.694;2023-07-08T11:12:34;4.93;;;3.75;;
77146;SDS011;66121;52.584;9.694;2023-07-08T11:15:20;6.22;;;4.20;;
77146;SDS011;66121;52.584;9.694;2023-07-08T11:17:56;4.82;;;4.18;;
77146;SDS011;66121;52.584;9.694;2023-07-08T11:22:59;6.20;;;4.22;;
77146;SDS011;66121;52.584;9.694;2023-07-08T11:25:33;6.57;;;4.45;;
77146;SDS011;66121;52.584;9.694;2023-07-08T11:28:02;5.57;;;3.95;;
77146;SDS011;66121;52.584;9.694;2023-07-08T11:30:30;5.18;;;4.10;;
77146;SDS011;66121;52.584;9.694;2023-07-08T11:33:04;7.90;;;4.35;;
77146;SDS011;66121;52.584;9.694;2023-07-08T11:35:38;7.03;;;4.57;;
77146;SDS011;66121;52.584;9.694;2023-07-08T11:38:14;8.00;;;4.28;;
77146;SDS011;66121;52.584;9.694;2023-07-08T11:40:56;5.38;;;4.20;;
77146;SDS011;66121;52.584;9.694;2023-07-08T11:43:25;4.90;;;3.97;;
77146;SDS011;66121;52.584;9.694;2023-07-08T11:45:54;6.18;;;4.60;;
77146;SDS011;66121;52.584;9.694;2023-07-08T11:48:24;6.93;;;4.53;;
77146;SDS011;66121;52.584;9.694;2023-07-08T11:50:53;5.78;;;4.68;;
77146;SDS011;66121;52.584;9.694;2023-07-08T11:56:00;7.88;;;4.30;;
77146;SDS011;66121;52.584;9.694;2023-07-08T11:58:31;8.95;;;4.53;;
77146;SDS011;66121;52.584;9.694;2023-07-08T12:09:15;7.27;;;4.83;;
77146;SDS011;66121;52.584;9.694;2023-07-08T12:11:51;7.35;;;4.97;;
77146;SDS011;66121;52.584;9.694;2023-07-08T12:14:19;6.18;;;4.88;;
77146;SDS011;66121;52.584;9.694;2023-07-08T12:16:45;10.40;;;5.03;;
77146;SDS011;66121;52.584;9.694;2023-07-08T12:19:12;7.10;;;5.13;;
77146;SDS011;66121;52.584;9.694;2023-07-08T12:21:41;7.45;;;5.10;;
77146;SDS011;66121;52.584;9.694;2023-07-08T12:24:06;7.78;;;5.00;;
77146;SDS011;66121;52.584;9.694;2023-07-08T12:26:33;7.32;;;5.18;;
77146;SDS011;66121;52.584;9.694;2023-07-08T12:28:58;6.57;;;4.47;;
77146;SDS011;66121;52.584;9.694;2023-07-08T12:31:24;8.15;;;4.80;;
77146;SDS011;66121;52.584;9.694;2023-07-08T12:33:50;7.43;;;5.00;;
77146;SDS011;66121;52.584;9.694;2023-07-08T12:36:17;8.00;;;4.80;;
77146;SDS011;66121;52.584;9.694;2023-07-08T12:38:45;6.65;;;5.00;;
77146;SDS011;66121;52.584;9.694;2023-07-08T12:41:12;6.63;;;5.00;;
77146;SDS011;66121;52.584;9.694;2023-07-08T12:43:41;6.70;;;5.03;;
77146;SDS011;66121;52.584;9.694;2023-07-08T12:46:08;5.32;;;4.53;;
77146;SDS011;66121;52.584;9.694;2023-07-08T12:48:35;7.88;;;4.55;;
77146;SDS011;66121;52.584;9.694;2023-07-08T12:51:03;6.00;;;4.95;;
77146;SDS011;66121;52.584;9.694;2023-07-08T12:53:29;10.57;;;5.50;;
77146;SDS011;66121;52.584;9.694;2023-07-08T12:55:57;9.32;;;5.18;;
77146;SDS011;66121;52.584;9.694;2023-07-08T12:58:24;7.25;;;4.70;;
77146;SDS011;66121;52.584;9.694;2023-07-08T13:00:52;7.57;;;4.68;;
77146;SDS011;66121;52.584;9.694;2023-07-08T13:03:19;6.60;;;4.88;;
77146;SDS011;66121;52.584;9.694;2023-07-08T13:05:47;7.53;;;4.93;;
77146;SDS011;66121;52.584;9.694;2023-07-08T13:08:15;6.35;;;4.85;;
77146;SDS011;66121;52.584;9.694;2023-07-08T13:10:43;6.50;;;4.97;;
77146;SDS011;66121;52.584;9.694;2023-07-08T13:13:13;6.30;;;4.88;;
77146;SDS011;66121;52.584;9.694;2023-07-08T13:15:44;7.00;;;4.88;;
77146;SDS011;66121;52.584;9.694;2023-07-08T13:18:14;6.22;;;4.97;;
77146;SDS011;66121;52.584;9.694;2023-07-08T13:20:41;8.85;;;4.80;;
77146;SDS011;66121;52.584;9.694;2023-07-08T13:23:09;6.65;;;4.65;;
77146;SDS011;66121;52.584;9.694;2023-07-08T13:25:36;6.72;;;4.57;;
77146;SDS011;66121;52.584;9.694;2023-07-08T13:28:14;6.60;;;4.88;;
77146;SDS011;66121;52.584;9.694;2023-07-08T13:30:57;6.78;;;4.38;;
77146;SDS011;66121;52.584;9.694;2023-07-08T13:33:33;8.02;;;4.95;;
77146;SDS011;66121;52.584;9.694;2023-07-08T13:36:01;6.57;;;4.68;;
77146;SDS011;66121;52.584;9.694;2023-07-08T13:38:31;8.25;;;4.95;;
77146;SDS011;66121;52.584;9.694;2023-07-08T13:41:00;5.30;;;4.70;;
77146;SDS011;66121;52.584;9.694;2023-07-08T13:43:28;6.68;;;4.53;;
77146;SDS011;66121;52.584;9.694;2023-07-08T13:45:56;9.60;;;5.63;;
77146;SDS011;66121;52.584;9.694;2023-07-08T13:51:11;7.70;;;4.68;;
77146;SDS011;66121;52.584;9.694;2023-07-08T13:53:51;6.57;;;5.10;;
77146;SDS011;66121;52.584;9.694;2023-07-08T13:56:33;7.10;;;4.88;;
77146;SDS011;66121;52.584;9.694;2023-07-08T13:59:00;6.38;;;5.15;;
77146;SDS011;66121;52.584;9.694;2023-07-08T14:01:29;7.72;;;5.18;;
77146;SDS011;66121;52.584;9.694;2023-07-08T14:03:55;8.55;;;5.50;;
77146;SDS011;66121;52.584;9.694;2023-07-08T14:06:23;6.32;;;5.07;;
77146;SDS011;66121;52.584;9.694;2023-07-08T14:08:54;7.00;;;5.13;;
77146;SDS011;66121;52.584;9.694;2023-07-08T14:11:21;7.82;;;5.28;;
77146;SDS011;66121;52.584;9.694;2023-07-08T14:13:46;7.20;;;5.15;;
77146;SDS011;66121;52.584;9.694;2023-07-08T14:16:20;7.13;;;5.00;;
77146;SDS011;66121;52.584;9.694;2023-07-08T14:18:50;8.45;;;5.15;;
77146;SDS011;66121;52.584;9.694;2023-07-08T14:21:15;8.90;;;5.20;;
77146;SDS011;66121;52.584;9.694;2023-07-08T14:23:43;6.47;;;5.30;;
77146;SDS011;66121;52.584;9.694;2023-07-08T14:26:12;9.07;;;5.25;;
77146;SDS011;66121;52.584;9.694;2023-07-08T14:28:37;9.05;;;5.25;;
77146;SDS011;66121;52.584;9.694;2023-07-08T14:31:03;8.27;;;5.35;;
77146;SDS011;66121;52.584;9.694;2023-07-08T14:33:33;6.22;;;5.25;;
77146;SDS011;66121;52.584;9.694;2023-07-08T14:35:58;7.80;;;5.20;;
77146;SDS011;66121;52.584;9.694;2023-07-08T14:38:23;7.40;;;5.20;;
77146;SDS011;66121;52.584;9.694;2023-07-08T14:40:49;7.22;;;5.03;;
77146;SDS011;66121;52.584;9.694;2023-07-08T14:43:18;7.65;;;5.70;;
77146;SDS011;66121;52.584;9.694;2023-07-08T14:45:50;8.73;;;5.07;;
77146;SDS011;66121;52.584;9.694;2023-07-08T14:48:18;7.63;;;5.47;;
77146;SDS011;66121;52.584;9.694;2023-07-08T14:50:43;7.32;;;5.38;;
77146;SDS011;66121;52.584;9.694;2023-07-08T14:53:09;6.35;;;4.85;;
77146;SDS011;66121;52.584;9.694;2023-07-08T14:55:35;7.90;;;5.22;;
77146;SDS011;66121;52.584;9.694;2023-07-08T14:58:01;7.63;;;4.90;;
77146;SDS011;66121;52.584;9.694;2023-07-08T15:00:28;8.13;;;4.95;;
77146;SDS011;66121;52.584;9.694;2023-07-08T15:02:53;7.43;;;4.90;;
77146;SDS011;66121;52.584;9.694;2023-07-08T15:07:50;6.93;;;4.82;;
77146;SDS011;66121;52.584;9.694;2023-07-08T15:10:17;6.65;;;4.97;;
77146;SDS011;66121;52.584;9.694;2023-07-08T15:12:43;7.18;;;4.97;;
77146;SDS011;66121;52.584;9.694;2023-07-08T15:15:16;8.05;;;5.38;;
77146;SDS011;66121;52.584;9.694;2023-07-08T15:17:48;9.68;;;5.28;;
77146;SDS011;66121;52.584;9.694;2023-07-08T15:20:13;7.07;;;5.25;;
77146;SDS011;66121;52.584;9.694;2023-07-08T15:22:40;8.70;;;5.13;;
77146;SDS011;66121;52.584;9.694;2023-07-08T15:25:09;8.40;;;5.32;;
77146;SDS011;66121;52.584;9.694;2023-07-08T15:30:09;6.88;;;5.13;;
77146;SDS011;66121;52.584;9.694;2023-07-08T15:32:41;7.57;;;5.35;;
77146;SDS011;66121;52.584;9.694;2023-07-08T15:35:18;6.80;;;4.93;;
77146;SDS011;66121;52.584;9.694;2023-07-08T15:37:49;6.32;;;5.47;;
77146;SDS011;66121;52.584;9.694;2023-07-08T15:40:16;6.20;;;5.00;;
77146;SDS011;66121;52.584;9.694;2023-07-08T15:42:44;6.93;;;5.30;;
77146;SDS011;66121;52.584;9.694;2023-07-08T15:45:23;7.65;;;5.68;;
77146;SDS011;66121;52.584;9.694;2023-07-08T15:47:52;8.60;;;5.50;;
77146;SDS011;66121;52.584;9.694;2023-07-08T15:50:19;10.95;;;5.50;;
77146;SDS011;66121;52.584;9.694;2023-07-08T15:52:46;7.03;;;5.68;;
77146;SDS011;66121;52.584;9.694;2023-07-08T15:55:13;7.70;;;5.70;;